Terminal Aerodrome Forecast
Issued by NWS Cleveland, OH

Home | Current Version | Previous Version | Graphics & Text | Print | Product List | Glossary On
Versions: 1 2 3 4 5 6 7 8 9 10 11 12 13 14 15 16 17 18 19 20 21
861
FTUS41 KCLE 281140
TAFCAK
TAF
KCAK 281140Z 2812/2912 03008KT 4SM -RA BR OVC015
      TEMPO 2812/2814 2SM -RA BR OVC004
     FM281400 01008KT 4SM BR OVC004
      TEMPO 2814/2816 2SM -DZ BR OVC002
     FM281900 35010KT P6SM OVC012
     FM282100 35010KT P6SM OVC020
     FM290200 35008KT P6SM BKN025 OVC035=

USA.gov is the U.S. government's official web portal to all federal, state and local government web resources and services.